M I D A S
Marine Information and Data Acquisition System
Tripno 1071 of the Zeeleeuw from 2006-04-18 08:40:58 to 2006-04-18 10:53:31
Back to CruiseResearch ActivitiesStationsMapUnderway DataData graphs

EquipmentUnitsComment
TimeDGPSUTC
LatitudeDGPSDM.mWGS84
LongitudeDGPSDM.mWGS84
HeadingGyrodeg 
SOGDGPSknotsSpeed over ground
COGDGPSdegCourse over ground
DepthEcho soundermeters200 kHz
Missing or incorrect values are displayed as -999
Navigation data collected by the RV Zeeleeuw from 2006-04-18 06:36:17 to 2006-04-18 11:06:56
Time Latitude Longitude Heading SOG COG Depth
2006-04-18 06:37:22 51°13.601 2°56.1 116.2 0.2 194 5.6
2006-04-18 06:38:22 51°13.605 2°56.074 110.3 2.6 288 -999
2006-04-18 06:39:22 51°13.627 2°55.977 117.3 4.4 293 -999
2006-04-18 06:40:23 51°13.671 2°55.861 128.1 5.3 304 -999
2006-04-18 06:41:22 51°13.708 2°55.764 115.2 4.1 297 -999
2006-04-18 06:42:22 51°13.723 2°55.724 72.2 1.2 43 10.6
2006-04-18 06:43:23 51°13.726 2°55.727 22.5 1.7 208 -999
2006-04-18 06:44:22 51°13.73 2°55.715 344.8 2 337 -999
2006-04-18 06:45:22 51°13.781 2°55.67 337.2 4.5 331 -999
2006-04-18 06:46:23 51°13.86 2°55.608 339.5 5.6 335 -999
2006-04-18 06:47:22 51°13.933 2°55.543 328.8 4.5 326 10.1
2006-04-18 06:48:22 51°13.983 2°55.482 317.9 3 319 9.7
2006-04-18 06:49:22 51°14.001 2°55.458 319.1 0.4 342 7.5
2006-04-18 06:50:22 51°14.005 2°55.455 324 0.1 352 7.6
2006-04-18 06:51:22 51°14.004 2°55.452 337.8 0.1 240 7.3
2006-04-18 06:52:22 51°14.004 2°55.451 350.8 0.1 108 -999
2006-04-18 06:53:22 51°14.004 2°55.451 350.5 -999 91 6.7
2006-04-18 06:54:21 51°14.004 2°55.451 350.2 -999 6 6.7
2006-04-18 06:55:21 51°14.004 2°55.45 350.2 -999 340 6.7
2006-04-18 06:56:22 51°14.004 2°55.45 350.1 -999 240 6.7
2006-04-18 06:57:22 51°14.004 2°55.451 350 -999 68 6.7
2006-04-18 06:58:22 51°14.004 2°55.451 350 -999 240 6.6
2006-04-18 06:59:22 51°14.004 2°55.451 350 -999 3 6.6
2006-04-18 07:00:22 51°14.004 2°55.45 349.9 -999 222 6.6
2006-04-18 07:01:22 51°14.004 2°55.45 349.9 -999 55 6.6
2006-04-18 07:02:22 51°14.005 2°55.451 349.8 -999 51 6.6
2006-04-18 07:03:22 51°14.004 2°55.45 349.8 -999 46 6.6
2006-04-18 07:04:22 51°14.007 2°55.45 351.4 0.2 350 6.7
2006-04-18 07:05:23 51°14.007 2°55.45 350.5 -999 257 -999
2006-04-18 07:06:23 51°14.007 2°55.45 350.3 -999 47 -999
2006-04-18 07:07:23 51°14.007 2°55.45 350.2 0.1 52 -999
2006-04-18 07:08:22 51°14.007 2°55.45 350.1 -999 52 6.5
2006-04-18 07:09:22 51°14.007 2°55.45 349.8 0.1 42 -999
2006-04-18 07:10:23 51°14.007 2°55.45 349.4 0.1 44 -999
2006-04-18 07:11:22 51°14.007 2°55.45 349.3 0.1 48 -999
2006-04-18 07:12:23 51°14.007 2°55.449 349.3 -999 202 -999
2006-04-18 07:13:22 51°14.006 2°55.448 349.3 -999 22 6.7
2006-04-18 07:14:22 51°14.007 2°55.449 349.5 -999 60 -999
2006-04-18 07:15:22 51°14.007 2°55.449 349.4 -999 89 6.5
2006-04-18 07:16:22 51°14.006 2°55.449 349.2 -999 154 6.4
2006-04-18 07:17:22 51°14.007 2°55.45 349.2 -999 47 6.4
2006-04-18 07:18:22 51°14.006 2°55.449 349.1 -999 286 6.4
2006-04-18 07:19:22 51°14.007 2°55.449 349 -999 125 6.4
2006-04-18 07:20:22 51°14.007 2°55.449 349 -999 251 6.4
2006-04-18 07:21:22 51°14.006 2°55.449 348.9 -999 144 6.3
2006-04-18 07:22:23 51°14.007 2°55.449 348.8 -999 122 -999
2006-04-18 07:23:23 51°14.007 2°55.449 348.7 -999 37 -999
2006-04-18 07:24:23 51°14.007 2°55.448 348.8 -999 202 -999
2006-04-18 07:25:21 51°14.007 2°55.449 348.8 -999 54 6.3
2006-04-18 07:26:22 51°14.007 2°55.449 348.8 -999 33 6.2
2006-04-18 07:27:22 51°14.006 2°55.449 348.8 -999 81 -999
2006-04-18 07:28:23 51°14.006 2°55.449 348.8 -999 220 -999
2006-04-18 07:29:23 51°14.006 2°55.45 348.8 -999 247 -999
2006-04-18 07:30:22 51°14.006 2°55.451 348.9 -999 299 -999
2006-04-18 07:31:22 51°14.006 2°55.451 348.9 -999 324 6.2
2006-04-18 07:32:22 51°14.006 2°55.451 348.9 -999 222 6.2
2006-04-18 07:33:22 51°14.006 2°55.45 348.8 -999 221 6.1
2006-04-18 07:34:22 51°14.006 2°55.449 348.8 -999 106 6.1
2006-04-18 07:35:23 51°14.007 2°55.45 349.1 -999 221 -999
2006-04-18 07:36:23 51°14.007 2°55.449 349.1 -999 18 6.2
2006-04-18 07:37:22 51°14.006 2°55.448 349.1 -999 305 6.1
2006-04-18 07:38:22 51°14.006 2°55.448 349.2 -999 277 6.1
2006-04-18 07:39:22 51°14.006 2°55.448 349.3 -999 275 -999
2006-04-18 07:40:23 51°14.007 2°55.449 349.3 -999 281 -999
2006-04-18 07:41:22 51°14.007 2°55.45 349.3 -999 357 -999
2006-04-18 07:42:22 51°14.006 2°55.449 349.4 -999 286 6.1
2006-04-18 07:43:23 51°14.006 2°55.449 349.4 -999 120 -999
2006-04-18 07:44:23 51°14.005 2°55.448 349.4 -999 273 -999
2006-04-18 07:45:22 51°14.005 2°55.449 349.4 -999 55 -999
2006-04-18 07:46:23 51°14.006 2°55.45 349.4 -999 61 -999
2006-04-18 07:47:23 51°14.006 2°55.45 349.4 -999 36 -999
2006-04-18 07:48:22 51°14.005 2°55.45 349.5 -999 89 -999
2006-04-18 07:49:23 51°14.006 2°55.45 349.5 -999 312 -999
2006-04-18 07:50:23 51°14.005 2°55.451 349.5 -999 50 -999
2006-04-18 07:51:22 51°14.004 2°55.448 349.6 -999 92 -999
2006-04-18 07:52:22 51°14.007 2°55.451 349.6 -999 222 -999
2006-04-18 07:53:22 51°14.006 2°55.45 349.6 -999 17 -999
2006-04-18 07:54:23 51°14.006 2°55.449 349.6 -999 315 -999
2006-04-18 07:55:22 51°14.006 2°55.449 349.7 -999 162 5.9
2006-04-18 07:56:22 51°14.007 2°55.451 349.8 -999 299 5.9
2006-04-18 07:57:22 51°14.006 2°55.449 349.8 -999 80 5.9
2006-04-18 07:58:22 51°14.006 2°55.449 349.8 -999 161 5.9
2006-04-18 07:59:22 51°14.006 2°55.45 349.8 -999 45 5.9
2006-04-18 08:00:22 51°14.007 2°55.451 350 -999 87 5.9
2006-04-18 08:01:22 51°14.006 2°55.45 349.8 0.1 52 5.9
2006-04-18 08:02:22 51°14.007 2°55.452 338.2 0.1 46 6
2006-04-18 08:03:23 51°13.994 2°55.466 333.5 0.6 153 -999
2006-04-18 08:04:22 51°14.042 2°55.436 347.3 5.3 342 6.4
2006-04-18 08:05:23 51°14.153 2°55.389 348.1 7.6 342 -999
2006-04-18 08:06:23 51°14.256 2°55.27 317.6 7.8 314 -999
2006-04-18 08:07:22 51°14.339 2°55.112 310.8 8 307 9.1
2006-04-18 08:08:22 51°14.409 2°54.909 294.3 9.9 288 9.2
2006-04-18 08:09:22 51°14.417 2°54.594 267.8 13 260 9
2006-04-18 08:10:22 51°14.327 2°54.274 240.9 13.4 237 8.1
2006-04-18 08:11:22 51°14.222 2°53.959 250.8 13.6 246 7.9
2006-04-18 08:12:22 51°14.121 2°53.635 246.4 13.8 242 8
2006-04-18 08:13:22 51°14.014 2°53.311 245.1 13.8 240 8.3
2006-04-18 08:14:22 51°13.907 2°52.989 252 13.8 247 8.6
2006-04-18 08:15:21 51°13.806 2°52.667 245 13.7 241 8.9
2006-04-18 08:16:22 51°13.704 2°52.333 247 13.8 242 9.1
2006-04-18 08:17:22 51°13.6 2°52.008 249.7 13.8 245 9.1
2006-04-18 08:18:22 51°13.483 2°51.694 243 13.8 240 9.3
2006-04-18 08:19:22 51°13.376 2°51.37 245.7 13.8 242 9.4
2006-04-18 08:20:22 51°13.266 2°51.048 246.8 13.8 242 9.6
2006-04-18 08:21:22 51°13.153 2°50.728 246.9 13.8 243 9.6
2006-04-18 08:22:22 51°13.048 2°50.401 246.3 13.8 243 9.8
2006-04-18 08:23:22 51°12.941 2°50.076 247.5 13.9 244 10
2006-04-18 08:24:22 51°12.833 2°49.751 246.1 13.9 243 10.1
2006-04-18 08:25:22 51°12.72 2°49.429 242.1 13.9 239 10.2
2006-04-18 08:26:22 51°12.606 2°49.106 244.6 13.9 240 10.4
2006-04-18 08:27:22 51°12.491 2°48.786 245.4 14 241 10.5
2006-04-18 08:28:22 51°12.377 2°48.463 243.1 14 240 10.6
2006-04-18 08:29:22 51°12.262 2°48.14 244.3 14 241 10.7
2006-04-18 08:30:22 51°12.149 2°47.817 244.9 13.9 241 10.7
2006-04-18 08:31:22 51°12.038 2°47.493 246.1 14 243 10.7
2006-04-18 08:32:22 51°11.931 2°47.162 246 14 242 10.7
2006-04-18 08:33:22 51°11.824 2°46.834 245.8 14 241 10.6
2006-04-18 08:34:22 51°11.716 2°46.505 246.7 14 243 10.7
2006-04-18 08:35:22 51°11.61 2°46.174 246.7 14 243 10.5
2006-04-18 08:36:22 51°11.505 2°45.844 246.2 14 243 10.2
2006-04-18 08:37:22 51°11.4 2°45.514 246.7 14 243 10.2
2006-04-18 08:38:22 51°11.297 2°45.182 248.8 14 245 9.9
2006-04-18 08:39:22 51°11.199 2°44.846 248.9 14 246 9.7
2006-04-18 08:40:22 51°11.101 2°44.512 248.4 14 246 9.5
2006-04-18 08:41:22 51°10.999 2°44.181 245 13.9 243 9.2
2006-04-18 08:42:22 51°10.905 2°43.843 248.2 13.9 244 9.1
2006-04-18 08:43:22 51°10.808 2°43.509 250.8 13.8 248 8.9
2006-04-18 08:44:22 51°10.715 2°43.174 246.8 13.8 244 8.7
2006-04-18 08:45:22 51°10.622 2°42.842 253.3 13.8 250 8.5
2006-04-18 08:46:22 51°10.541 2°42.5 252.5 13.8 249 8.5
2006-04-18 08:47:22 51°10.448 2°42.166 251.1 13.8 248 8.4
2006-04-18 08:48:22 51°10.361 2°41.829 246.3 13.7 243 8.5
2006-04-18 08:49:22 51°10.275 2°41.493 253.5 13.7 250 8.5
2006-04-18 08:50:22 51°10.183 2°41.16 246 13.7 243 8.6
2006-04-18 08:51:22 51°10.099 2°40.824 252.2 13.7 249 8.6
2006-04-18 08:52:22 51°10.014 2°40.487 251.9 13.8 249 8.7
2006-04-18 08:53:22 51°9.929 2°40.15 252 13.7 250 8.7
2006-04-18 08:54:22 51°9.838 2°39.817 247.1 13.8 246 8.8
2006-04-18 08:55:22 51°9.757 2°39.478 251.3 13.7 248 8.7
2006-04-18 08:56:22 51°9.673 2°39.139 251.1 13.8 249 9
2006-04-18 08:57:22 51°9.585 2°38.801 249.6 13.8 247 9.1
2006-04-18 08:58:22 51°9.499 2°38.461 248 13.8 245 9.2
2006-04-18 08:59:22 51°9.409 2°38.126 251.4 13.8 248 9.1
2006-04-18 09:00:22 51°9.32 2°37.79 250.4 13.8 249 9
2006-04-18 09:01:22 51°9.244 2°37.464 249.8 10.9 246 9.1
2006-04-18 09:02:22 51°9.18 2°37.293 242.3 5.9 241 9.1
2006-04-18 09:03:22 51°9.152 2°37.201 238.5 1.6 244 9
2006-04-18 09:04:23 51°9.154 2°37.193 210.3 0.3 306 -999
2006-04-18 09:05:22 51°9.157 2°37.185 195 0.4 300 9.1
2006-04-18 09:06:22 51°9.16 2°37.175 179 0.4 281 9.1
2006-04-18 09:07:22 51°9.16 2°37.164 165.9 0.5 266 9.1
2006-04-18 09:08:22 51°9.159 2°37.154 156.8 0.3 260 9.2
2006-04-18 09:09:22 51°9.157 2°37.145 152.3 0.4 241 9.1
2006-04-18 09:10:22 51°9.154 2°37.137 149.9 0.4 237 9.2
2006-04-18 09:11:22 51°9.15 2°37.129 150.5 0.4 231 9.1
2006-04-18 09:12:22 51°9.145 2°37.12 155.2 0.4 230 9.1
2006-04-18 09:13:22 51°9.14 2°37.112 159.3 0.4 229 9.1
2006-04-18 09:14:22 51°9.134 2°37.103 163.1 0.8 197 9.1
2006-04-18 09:15:22 51°9.092 2°37.088 196 4.5 205 8.7
2006-04-18 09:16:22 51°9.053 2°36.954 278.3 6.5 277 8.5
2006-04-18 09:17:22 51°9.131 2°36.86 6.5 6.3 359 9.7
2006-04-18 09:18:22 51°9.212 2°36.916 49.3 4.4 41 10.7
2006-04-18 09:19:22 51°9.246 2°36.998 65.9 3.6 61 10.9
2006-04-18 09:20:22 51°9.27 2°37.088 75.6 3.7 74 10.8
2006-04-18 09:21:22 51°9.283 2°37.182 79.8 3.6 79 10.6
2006-04-18 09:22:22 51°9.297 2°37.268 77.7 3.1 75 10.5
2006-04-18 09:23:22 51°9.305 2°37.345 85.3 2.9 85 10.3
2006-04-18 09:24:22 51°9.306 2°37.426 91.9 3.1 90 10
2006-04-18 09:25:21 51°9.302 2°37.511 94.6 3.4 96 9.8
2006-04-18 09:26:22 51°9.298 2°37.601 94.1 3.4 94 9.6
2006-04-18 09:27:22 51°9.295 2°37.69 92.2 3.4 93 9.3
2006-04-18 09:28:22 51°9.292 2°37.778 91.5 3.3 94 9.2
2006-04-18 09:29:22 51°9.293 2°37.863 85.6 3.2 85 9.1
2006-04-18 09:30:22 51°9.3 2°37.946 82 3.1 82 9
2006-04-18 09:31:22 51°9.312 2°38.026 75.9 3.1 74 9
2006-04-18 09:32:22 51°9.335 2°38.097 59.8 3 53 9.1
2006-04-18 09:33:22 51°9.371 2°38.154 52.1 3.1 43 9.3
2006-04-18 09:34:22 51°9.401 2°38.218 69.7 3 65 9.3
2006-04-18 09:35:22 51°9.42 2°38.292 72.4 3.1 70 9.4
2006-04-18 09:36:22 51°9.44 2°38.369 72.1 3.1 68 9.3
2006-04-18 09:37:22 51°9.46 2°38.444 69.8 3.1 65 9.4
2006-04-18 09:38:22 51°9.482 2°38.52 69.9 3.1 67 9.4
2006-04-18 09:39:22 51°9.503 2°38.594 70.2 3.1 66 9.4
2006-04-18 09:40:22 51°9.525 2°38.668 69.8 3.1 66 9.4
2006-04-18 09:41:22 51°9.546 2°38.743 70.1 3.1 66 9.4
2006-04-18 09:42:22 51°9.567 2°38.817 68.2 3 64 9.4
2006-04-18 09:43:22 51°9.591 2°38.887 65.3 3 60 9.4
2006-04-18 09:44:22 51°9.616 2°38.959 67.1 3.4 66 9.4
2006-04-18 09:45:22 51°9.627 2°39.063 87.2 4.3 88 9.2
2006-04-18 09:46:22 51°9.617 2°39.181 100.8 4.5 105 9
2006-04-18 09:47:22 51°9.587 2°39.291 116.1 4.6 123 8.7
2006-04-18 09:48:22 51°9.525 2°39.375 141 5.3 146 8.3
2006-04-18 09:49:22 51°9.469 2°39.453 117.7 3.3 122 8
2006-04-18 09:50:22 51°9.473 2°39.519 58.4 2.5 48 7.9
2006-04-18 09:51:22 51°9.509 2°39.541 26.8 2 9 8
2006-04-18 09:52:22 51°9.54 2°39.543 16.9 1.8 354 8.2
2006-04-18 09:53:22 51°9.566 2°39.536 10.8 1.6 348 8.4
2006-04-18 09:54:22 51°9.595 2°39.532 18.7 2.7 5 8.5
2006-04-18 09:55:22 51°9.654 2°39.565 36.9 4.5 29 8.7
2006-04-18 09:56:22 51°9.723 2°39.636 42.1 5.2 34 8.9
2006-04-18 09:57:22 51°9.789 2°39.727 51.7 5.2 47 9.1
2006-04-18 09:58:22 51°9.856 2°39.87 59.5 9.7 57 9.1
2006-04-18 09:59:22 51°9.949 2°40.128 64.8 11.7 61 9.1
2006-04-18 10:00:22 51°10.043 2°40.4 65.2 11.8 64 9.3
2006-04-18 10:01:22 51°10.134 2°40.675 64.4 11.7 62 9.4
2006-04-18 10:02:22 51°10.224 2°40.949 65.3 11.7 62 9.5
2006-04-18 10:03:22 51°10.315 2°41.222 63.6 11.7 60 9.6
2006-04-18 10:04:22 51°10.407 2°41.494 67.4 11.6 65 9.8
2006-04-18 10:05:22 51°10.497 2°41.768 63.1 11.7 59 10
2006-04-18 10:06:22 51°10.592 2°42.037 65 11.6 62 10.2
2006-04-18 10:07:22 51°10.679 2°42.308 65.8 11.5 60 10.3
2006-04-18 10:08:22 51°10.767 2°42.579 66.2 11.5 62 10.5
2006-04-18 10:09:22 51°10.859 2°42.846 67.3 11.5 63 10.7
2006-04-18 10:10:22 51°10.947 2°43.115 66 11.4 62 10.9
2006-04-18 10:11:22 51°11.038 2°43.378 64.4 11.3 61 11
2006-04-18 10:12:22 51°11.128 2°43.643 64.2 11.5 60 11.2
2006-04-18 10:13:22 51°11.215 2°43.909 68.3 11.4 64 11.4
2006-04-18 10:14:22 51°11.305 2°44.174 64.5 11.4 59 11.5
2006-04-18 10:15:22 51°11.39 2°44.443 69.4 11.4 66 11.5
2006-04-18 10:16:22 51°11.474 2°44.716 69.2 11.5 66 11.5
2006-04-18 10:17:22 51°11.549 2°44.996 71 11.5 68 11.6
2006-04-18 10:18:22 51°11.62 2°45.28 70 11.6 67 11.6
2006-04-18 10:19:22 51°11.684 2°45.571 75.5 11.6 73 11.8
2006-04-18 10:20:22 51°11.748 2°45.858 74.6 11.5 72 11.7
2006-04-18 10:21:22 51°11.812 2°46.147 71.8 11.6 68 11.7
2006-04-18 10:22:22 51°11.877 2°46.438 73.2 11.5 69 11.8
2006-04-18 10:23:22 51°11.941 2°46.725 74.3 11.5 72 11.7
2006-04-18 10:24:22 51°12.006 2°47.012 73.5 11.6 70 11.7
2006-04-18 10:25:22 51°12.087 2°47.286 65.5 11.5 63 11.6
2006-04-18 10:26:22 51°12.172 2°47.558 67 11.5 63 11.6
2006-04-18 10:27:22 51°12.257 2°47.831 65.7 11.5 61 11.4
2006-04-18 10:28:22 51°12.348 2°48.099 63.1 11.6 60 11.4
2006-04-18 10:29:22 51°12.438 2°48.368 65.3 11.6 62 11.3
2006-04-18 10:30:22 51°12.531 2°48.635 64.6 11.6 61 11.2
2006-04-18 10:31:23 51°12.625 2°48.908 65.2 11.5 61 11
2006-04-18 10:32:22 51°12.716 2°49.171 63.8 11.5 60 11
2006-04-18 10:33:22 51°12.806 2°49.444 66.6 11.6 63 10.8
2006-04-18 10:34:22 51°12.897 2°49.714 65.5 11.7 63 10.7
2006-04-18 10:35:22 51°12.985 2°49.99 69.6 11.7 65 10.6
2006-04-18 10:36:22 51°13.069 2°50.269 68.8 11.6 67 10.5
2006-04-18 10:37:22 51°13.15 2°50.551 68.2 11.8 65 10.3
2006-04-18 10:38:22 51°13.231 2°50.83 70.2 11.6 69 10.2
2006-04-18 10:39:22 51°13.309 2°51.112 69.1 11.6 67 10.1
2006-04-18 10:40:22 51°13.389 2°51.395 71 11.8 68 9.8
2006-04-18 10:41:22 51°13.468 2°51.676 65.3 11.7 62 9.7
2006-04-18 10:42:22 51°13.562 2°51.946 63.4 11.7 61 9.5
2006-04-18 10:43:22 51°13.652 2°52.224 63.5 11.8 60 9.5
2006-04-18 10:44:22 51°13.743 2°52.499 64.5 11.7 62 9.4
2006-04-18 10:45:23 51°13.835 2°52.78 64.1 11.8 59 9.2
2006-04-18 10:46:22 51°13.926 2°53.053 66.8 11.9 64 9
2006-04-18 10:47:22 51°14.027 2°53.322 63.8 11.9 59 8.9
2006-04-18 10:48:23 51°14.124 2°53.591 63.9 10.9 59 8.7
2006-04-18 10:49:22 51°14.202 2°53.825 64.5 10.4 61 8.5
2006-04-18 10:50:23 51°14.3 2°54.075 60.1 11.1 55 8.5
2006-04-18 10:51:22 51°14.385 2°54.337 75.4 11.6 76 8.6
2006-04-18 10:52:22 51°14.401 2°54.647 88.4 11.9 86 9.4
2006-04-18 10:53:22 51°14.387 2°54.955 98.3 11.3 100 9
2006-04-18 10:54:22 51°14.316 2°55.179 129.1 8 128 9.4
2006-04-18 10:55:23 51°14.231 2°55.312 144.2 6.4 141 -999
2006-04-18 10:56:22 51°14.146 2°55.391 157.6 6 155 9.3
2006-04-18 10:57:23 51°14.062 2°55.453 158.7 4.9 156 9.5
2006-04-18 10:58:22 51°13.99 2°55.511 157.5 5.5 154 9.5
2006-04-18 10:59:22 51°13.899 2°55.58 158.9 6.3 154 -999
2006-04-18 11:00:22 51°13.812 2°55.65 154.1 5.3 150 9.6
2006-04-18 11:01:22 51°13.748 2°55.731 141.4 4.8 137 9.2
2006-04-18 11:02:26 51°13.693 2°55.83 132.5 4.6 128 9.6
2006-04-18 11:03:26 51°13.649 2°55.927 129.2 4.2 125 -999
2006-04-18 11:04:26 51°13.619 2°56.009 118.7 3.1 115 -999
2006-04-18 11:05:26 51°13.606 2°56.074 104.8 1.9 103 -999
2006-04-18 11:06:26 51°13.602 2°56.095 115.7 0.5 116 -999